Lebanon, CT (06249)

8:15 AM EST on December 27, 2014 (GMT -0500)
Babcock Hill | Change Station
CLOSE
Current Station
Personal Weather Station
Location: Lebanon, CT
Elevation: 440 ft
Nearby Weather Stations

Elev 440 ft 41.65 °N, 72.18 °W | Updated 3 minutes ago

Clear
Clear
31.2 °F
Feels Like 31 °F
N
0.0
Wind Variable Wind from NW

Today
High -- | Low -- °F
--% Chance of Precip.
Yesterday
High -- | Low -- °F
Precip. -- in
7:14 AM 4:25 PM
Waxing Crescent, 36% visible
Pressure 30.25 in
Visibility 7.0 miles
Clouds Clear
Windchill 31 °F
Dew Point 29 °F
Humidity 92%
Rainfall 0.00 in
Snow Depth Not available.
UV 0.0 out of 12
Pollen .10 out of 12
Air Quality Not available.
Flu Activity Not available.
METAR KIJD 271252Z AUTO 00000KT 7SM CLR M04/M06 A3024 RMK AO2 SLP243 T10391061

More Conditions Fewer Conditions

Pressure 30.25 in
Visibility 7.0 miles
Clouds Clear
Windchill 31 °F
Dew Point 29 °F
Humidity 92%
Rainfall 0.00 in
Snow Depth Not available.
UV 0.0 out of 12
Pollen .10 out of 12
Air Quality Not available.
Flu Activity Not available.
METAR KIJD 271252Z AUTO 00000KT 7SM CLR M04/M06 A3024 RMK AO2 SLP243 T10391061

More Conditions Fewer Conditions

10-Day Weather Forecast

Almanac

Astronomy

Dec. 27, 2014 Rise Set
Actual Time
Civil Twilight
Nautical Twilight
Astronomical Twilight
Moon
Length of Visible Light
Length of Day
Tomorrow will be .
, % of the Moon is Illuminated

Today's Extremes

State Highs State Lows

Community

WunderPhotos

Upload Photos

1,780,890 photos uploaded!

WunderBlogs® & News

Nearby

Air Quality

  Air Quality AQ Index Pollutant
Not available.

Snow Depth

Station Depth Elevation

Earthquake Activity

City Distance Mag. Time & Date
Minimum magnitude displayed is 2.5.

Coastal Water Temperatures

Place Temperature

Nearby Weather Stations